Etusivu
METAR-TAF:

METAR-TAF

Lentoasemat :

Braunschweig, Saksa

Leveyspiiri: 52-18N, Pituuspiiri: 010-27E, korkeus merenpinnasta: 81 m

Tämänhetkinen sää

Tämä raportti tehtiin 37 minuuttia sitten, kello 19.20 UTC
Tuuli 3 kn idästä
Lämpötila 7°C
Kosteus 81%
Ilmanpaine 1004 hPa
Näkyvyys 10 km tai enemmän

METAR: EDVE 031920Z AUTO 08003KT 9999 NCD 07/04 Q1004

Aika: 20:57 (19:57 UTC)

Sääennuste

Tämä raportti tehtiin 2 tuntia ja 57 minuuttia sitten, kello 17.00 UTC
Ennuste voimassa 03. päivästä klo 18 UTC - 03. päivään klo 21 UTC
Tuuli 9 kn idästä
Näkyvyys 10 km tai enemmän
ei pilviä alle 1500 m:ssä eikä cumulonimbus-pilviä
Tulossa
03. päivästä klo 18 UTC - 03. päivään klo 20 UTC
Tuuli 4 kn idästä

TAF: EDVE 031700Z 0318/0321 09009KT CAVOK BECMG 0318/0320 08004KT

Säähavainnot ja -ennusteet yli 4000 lentoasemalta (METAR- ja TAF-raportit).

Käytössä olevat sääasemat on merkitty karttaan keltaisilla ja punaisilla pisteillä.

Aseta hiiri pisteen päälle nähdäksesi sääaseman nimen.

Klikkaa sitten nähdäksesi säähavainnot ja -ennusteet.

Kartan vaihtaminen: klikkaa mustalla rastilla varustettuja vihreitä pisteitä, niin voit zoomata sisään; viivalla varustettua vihreää pistettä, niin voit zoomata ulos tai vihreitä nuolia, niin pääset viereisille kartoille.


METAR-TAF: